createdAt,value
2023-01-19T00:01:59.037Z,11.13
2023-01-19T00:05:04.004Z,10.93
2023-01-19T00:08:14.880Z,10.07
2023-01-19T00:11:18.481Z,9.20
2023-01-19T00:14:21.042Z,8.40
2023-01-19T00:17:23.501Z,7.75
2023-01-19T00:20:25.961Z,7.50
2023-01-19T00:23:28.544Z,7.90
2023-01-19T00:26:31.097Z,7.63
2023-01-19T00:29:34.353Z,7.57
2023-01-19T00:32:36.777Z,7.65
2023-01-19T00:35:39.492Z,7.63
2023-01-19T00:38:42.001Z,7.70
2023-01-19T00:42:03.177Z,7.85
2023-01-19T00:45:09.277Z,8.00
2023-01-19T00:48:11.912Z,6.93
2023-01-19T00:51:14.487Z,7.10
2023-01-19T00:54:17.020Z,7.07
2023-01-19T00:57:19.472Z,6.30
2023-01-19T01:00:22.591Z,6.18
2023-01-19T01:03:28.176Z,5.95
2023-01-19T01:06:31.028Z,5.90
2023-01-19T01:09:33.537Z,5.88
2023-01-19T01:12:37.327Z,5.90
2023-01-19T01:15:40.138Z,5.70
2023-01-19T01:18:43.390Z,5.73
2023-01-19T01:21:45.838Z,5.03
2023-01-19T01:24:48.296Z,5.32
2023-01-19T01:27:51.479Z,5.03
2023-01-19T01:30:55.693Z,5.05
2023-01-19T01:33:58.167Z,5.30
2023-01-19T01:37:00.612Z,5.00
2023-01-19T01:40:04.867Z,4.68
2023-01-19T01:43:13.589Z,5.10
2023-01-19T01:46:17.583Z,4.30
2023-01-19T01:49:20.175Z,3.85
2023-01-19T01:52:26.361Z,4.10
2023-01-19T01:55:30.598Z,4.00
2023-01-19T01:58:34.333Z,3.83
2023-01-19T02:01:55.760Z,3.67
2023-01-19T02:05:04.259Z,4.00
2023-01-19T02:08:33.415Z,3.47
2023-01-19T02:11:55.150Z,3.80
2023-01-19T02:14:57.692Z,3.20
2023-01-19T02:18:00.273Z,3.38
2023-01-19T02:21:11.615Z,3.15
2023-01-19T02:24:14.690Z,3.13
2023-01-19T02:27:17.379Z,2.72
2023-01-19T02:30:20.090Z,2.95
2023-01-19T02:33:22.755Z,3.20
2023-01-19T02:36:30.290Z,2.60
2023-01-19T02:39:50.850Z,2.33
2023-01-19T02:42:58.773Z,2.42
2023-01-19T02:46:01.384Z,2.53
2023-01-19T02:49:03.989Z,2.00
2023-01-19T02:52:15.557Z,2.53
2023-01-19T02:55:25.593Z,2.60
2023-01-19T02:58:39.563Z,2.15
2023-01-19T03:02:09.992Z,2.20
2023-01-19T03:05:30.760Z,2.10
2023-01-19T03:08:53.085Z,2.10
2023-01-19T03:12:09.647Z,2.15
2023-01-19T03:15:23.045Z,1.80
2023-01-19T03:18:29.793Z,1.88
2023-01-19T03:21:35.766Z,2.20
2023-01-19T03:24:42.184Z,1.63
2023-01-19T03:27:47.199Z,2.00
2023-01-19T03:31:01.746Z,1.77
2023-01-19T03:34:08.045Z,1.73
2023-01-19T03:37:14.262Z,1.88
2023-01-19T03:40:20.409Z,2.00
2023-01-19T03:43:25.542Z,1.70
2023-01-19T03:46:28.802Z,1.90
2023-01-19T03:49:31.887Z,1.90
2023-01-19T03:52:34.631Z,1.53
2023-01-19T03:55:39.065Z,1.58
2023-01-19T03:58:42.408Z,1.90
2023-01-19T04:01:45.299Z,2.03
2023-01-19T04:04:47.868Z,1.73
2023-01-19T04:07:52.157Z,1.63
2023-01-19T04:10:54.736Z,1.85
2023-01-19T04:13:57.294Z,1.92
2023-01-19T04:17:00.190Z,1.53
2023-01-19T04:20:03.158Z,1.70
2023-01-19T04:23:05.745Z,1.35
2023-01-19T04:26:09.183Z,1.35
2023-01-19T04:29:11.643Z,1.50
2023-01-19T04:32:14.815Z,1.50
2023-01-19T04:35:17.484Z,1.50
2023-01-19T04:38:20.342Z,1.48
2023-01-19T04:41:22.875Z,1.23
2023-01-19T04:44:25.268Z,1.40
2023-01-19T04:47:27.711Z,1.10
2023-01-19T04:50:30.835Z,1.40
2023-01-19T04:53:33.237Z,1.25
2023-01-19T04:56:36.042Z,1.00
2023-01-19T04:59:38.425Z,0.80
2023-01-19T05:02:44.239Z,0.70
2023-01-19T05:05:46.859Z,0.90
2023-01-19T05:08:49.251Z,0.88
2023-01-19T05:11:51.706Z,0.80
2023-01-19T05:14:54.170Z,0.50
2023-01-19T05:17:58.147Z,0.70
2023-01-19T05:21:02.349Z,0.50
2023-01-19T05:24:04.972Z,0.50
2023-01-19T05:27:07.559Z,0.50
2023-01-19T05:30:11.017Z,0.40
2023-01-19T05:33:13.539Z,0.30
2023-01-19T05:36:16.059Z,0.30
2023-01-19T05:39:18.926Z,0.40
2023-01-19T05:42:21.388Z,0.45
2023-01-19T05:45:23.809Z,0.40
2023-01-19T05:48:26.502Z,0.50
2023-01-19T05:51:35.356Z,0.40
2023-01-19T05:54:40.347Z,0.50
2023-01-19T05:57:43.367Z,0.45
2023-01-19T06:00:45.831Z,0.80
2023-01-19T06:03:48.934Z,0.90
2023-01-19T06:06:51.789Z,0.80
2023-01-19T06:09:54.251Z,0.60
2023-01-19T06:12:57.154Z,0.70
2023-01-19T06:16:01.463Z,0.70
2023-01-19T06:19:04.457Z,0.68
2023-01-19T06:22:06.962Z,0.70
2023-01-19T06:25:10.174Z,0.70
2023-01-19T06:28:12.664Z,0.60
2023-01-19T06:31:15.290Z,0.50
2023-01-19T06:34:19.072Z,0.60
2023-01-19T06:37:21.651Z,0.50
2023-01-19T06:40:24.296Z,0.40
2023-01-19T06:43:27.136Z,0.40
2023-01-19T06:46:29.994Z,0.60
2023-01-19T06:49:32.863Z,0.60
2023-01-19T06:52:42.224Z,0.55
2023-01-19T06:55:44.780Z,0.60
2023-01-19T06:58:48.599Z,0.50
2023-01-19T07:01:51.275Z,0.55
2023-01-19T07:04:55.184Z,0.47
2023-01-19T07:07:57.940Z,0.60
2023-01-19T07:11:26.542Z,0.60
2023-01-19T07:14:33.566Z,0.60
2023-01-19T07:17:36.092Z,0.70
2023-01-19T07:20:38.634Z,0.70
2023-01-19T07:23:41.289Z,1.00
2023-01-19T07:26:43.882Z,0.90
2023-01-19T07:29:46.314Z,1.23
2023-01-19T07:32:48.869Z,1.50
2023-01-19T07:35:52.611Z,1.30
2023-01-19T07:38:55.133Z,1.00
2023-01-19T07:41:58.253Z,1.80
2023-01-19T07:45:01.011Z,1.60
2023-01-19T07:48:03.672Z,1.30
2023-01-19T07:51:10.421Z,1.10
2023-01-19T07:54:14.999Z,1.10
2023-01-19T07:57:17.889Z,1.45
2023-01-19T08:00:24.613Z,1.10
2023-01-19T08:03:27.335Z,0.90
2023-01-19T08:06:35.294Z,1.38
2023-01-19T08:09:37.777Z,1.40
2023-01-19T08:12:41.954Z,1.30
2023-01-19T08:15:45.028Z,1.70
2023-01-19T08:18:47.860Z,1.45
2023-01-19T08:21:50.310Z,1.60
2023-01-19T08:24:53.102Z,1.93
2023-01-19T08:27:56.620Z,2.42
2023-01-19T08:31:08.027Z,2.65
2023-01-19T08:34:17.242Z,3.65
2023-01-19T08:37:19.721Z,3.30
2023-01-19T08:40:23.080Z,2.80
2023-01-19T08:43:26.890Z,2.20
2023-01-19T08:46:29.875Z,2.30
2023-01-19T08:49:32.418Z,2.03
2023-01-19T08:52:35.667Z,2.40
2023-01-19T08:55:39.470Z,2.50
2023-01-19T08:58:43.993Z,2.50
2023-01-19T09:01:46.697Z,2.80
2023-01-19T09:04:50.180Z,2.83
2023-01-19T09:07:53.655Z,2.87
2023-01-19T09:10:56.521Z,2.78
2023-01-19T09:13:59.091Z,3.40
2023-01-19T09:17:01.603Z,3.22
2023-01-19T09:20:05.986Z,3.57
2023-01-19T09:23:14.025Z,3.63
2023-01-19T09:26:17.423Z,3.40
2023-01-19T09:29:20.092Z,3.33
2023-01-19T09:32:23.087Z,3.05
2023-01-19T09:35:26.003Z,3.40
2023-01-19T09:38:31.554Z,3.28
2023-01-19T09:41:36.425Z,3.30
2023-01-19T09:44:43.467Z,3.25
2023-01-19T09:47:48.643Z,3.10
2023-01-19T09:50:54.287Z,3.10
2023-01-19T09:54:19.390Z,2.72
2023-01-19T09:57:23.996Z,3.53
2023-01-19T10:00:28.983Z,3.80
2023-01-19T10:03:35.552Z,3.90
2023-01-19T10:06:38.151Z,4.10
2023-01-19T10:10:20.292Z,4.20
2023-01-19T10:13:31.896Z,3.20
2023-01-19T10:17:07.036Z,2.80
2023-01-19T10:20:35.167Z,2.53
2023-01-19T10:23:54.828Z,2.88
2023-01-19T10:26:57.469Z,2.80
2023-01-19T10:30:01.771Z,3.03
2023-01-19T10:33:05.127Z,2.80
2023-01-19T10:36:18.065Z,3.03
2023-01-19T10:39:21.250Z,3.13
2023-01-19T10:42:27.543Z,2.37
2023-01-19T10:45:31.762Z,3.40
2023-01-19T10:48:42.154Z,3.00
2023-01-19T10:51:49.037Z,2.13
2023-01-19T10:54:52.003Z,2.70
2023-01-19T10:57:54.840Z,2.20
2023-01-19T11:01:13.830Z,2.70
2023-01-19T11:04:27.700Z,1.60
2023-01-19T11:07:33.104Z,1.75
2023-01-19T11:10:36.233Z,1.50
2023-01-19T11:13:40.544Z,1.70
2023-01-19T11:16:47.494Z,2.08
2023-01-19T11:19:56.277Z,1.38
2023-01-19T11:23:05.351Z,1.67
2023-01-19T11:26:15.675Z,2.27
2023-01-19T11:29:24.482Z,2.00
2023-01-19T11:32:27.746Z,1.90
2023-01-19T11:35:34.031Z,1.85
2023-01-19T11:38:43.655Z,1.37
2023-01-19T11:41:51.342Z,1.30
2023-01-19T11:45:05.879Z,1.30
2023-01-19T11:48:22.549Z,1.50
2023-01-19T11:51:49.531Z,1.33
2023-01-19T11:55:06.222Z,1.00
2023-01-19T11:58:15.917Z,1.00
2023-01-19T12:01:30.079Z,1.10
2023-01-19T12:04:40.447Z,1.40
2023-01-19T12:07:45.210Z,1.30
2023-01-19T12:10:50.626Z,1.02
2023-01-19T12:13:54.322Z,1.25
2023-01-19T12:17:01.046Z,1.10
2023-01-19T12:20:13.900Z,1.43
2023-01-19T12:23:38.727Z,1.40
2023-01-19T12:26:51.314Z,1.52
2023-01-19T12:29:55.107Z,1.60
2023-01-19T12:33:34.997Z,1.40
2023-01-19T12:36:38.927Z,1.50
2023-01-19T12:39:49.045Z,1.75
2023-01-19T12:43:06.003Z,1.90
2023-01-19T12:46:31.834Z,1.80
2023-01-19T12:49:40.234Z,1.63
2023-01-19T12:52:51.752Z,1.97
2023-01-19T12:56:01.086Z,1.88
2023-01-19T12:59:05.904Z,1.70
2023-01-19T13:02:20.810Z,1.63
2023-01-19T13:05:33.136Z,1.40
2023-01-19T13:09:43.897Z,1.50
2023-01-19T13:13:16.572Z,1.60
2023-01-19T13:16:19.625Z,2.40
2023-01-19T13:19:32.465Z,2.27
2023-01-19T13:22:49.958Z,2.30
2023-01-19T13:25:58.933Z,2.78
2023-01-19T13:29:34.548Z,2.33
2023-01-19T13:32:42.308Z,2.23
2023-01-19T13:35:56.290Z,2.67
2023-01-19T13:39:18.348Z,2.72
2023-01-19T13:42:29.423Z,2.70
2023-01-19T13:45:37.064Z,2.67
2023-01-19T13:48:40.209Z,3.40
2023-01-19T13:51:42.865Z,3.38
2023-01-19T13:54:53.325Z,4.03
2023-01-19T13:58:01.613Z,4.03
2023-01-19T14:01:04.159Z,4.50
2023-01-19T14:04:23.808Z,5.18
2023-01-19T14:07:26.690Z,6.32
2023-01-19T14:10:31.373Z,6.65
2023-01-19T14:13:37.439Z,7.87
2023-01-19T14:16:40.028Z,7.80
2023-01-19T14:19:54.224Z,7.30
2023-01-19T14:22:56.816Z,7.20
2023-01-19T14:25:59.297Z,5.13
2023-01-19T14:29:27.932Z,5.70
2023-01-19T14:32:30.666Z,6.85
2023-01-19T14:35:34.724Z,5.25
2023-01-19T14:38:37.255Z,6.28
2023-01-19T14:41:52.325Z,5.80
2023-01-19T14:44:56.899Z,5.75
2023-01-19T14:48:12.117Z,5.18
2023-01-19T14:51:20.296Z,4.85
2023-01-19T14:54:34.342Z,5.60
2023-01-19T14:57:37.901Z,5.47
2023-01-19T15:00:41.983Z,5.68
2023-01-19T15:03:45.782Z,6.50
2023-01-19T15:06:48.660Z,6.13
2023-01-19T15:09:51.786Z,6.70
2023-01-19T15:12:54.943Z,6.00
2023-01-19T15:15:58.416Z,6.10
2023-01-19T15:19:01.075Z,6.07
2023-01-19T15:22:11.303Z,6.10
2023-01-19T15:25:16.062Z,6.50
2023-01-19T15:28:20.048Z,5.87
2023-01-19T15:31:24.792Z,6.43
2023-01-19T15:34:27.342Z,6.80
2023-01-19T15:37:29.803Z,6.40
2023-01-19T15:40:32.412Z,6.70
2023-01-19T15:43:34.794Z,6.77
2023-01-19T15:46:37.410Z,6.22
2023-01-19T15:49:39.879Z,7.93
2023-01-19T15:52:43.899Z,7.78
2023-01-19T15:55:51.219Z,8.20
2023-01-19T15:58:54.795Z,7.90
2023-01-19T16:01:58.103Z,9.02
2023-01-19T16:05:00.671Z,8.80
2023-01-19T16:08:03.147Z,9.23
2023-01-19T16:11:10.975Z,8.07
2023-01-19T16:14:13.506Z,9.73
2023-01-19T16:17:16.258Z,8.32
2023-01-19T16:20:18.744Z,9.17
2023-01-19T16:23:21.869Z,9.37
2023-01-19T16:26:34.206Z,9.77
2023-01-19T16:29:37.284Z,9.52
2023-01-19T16:32:39.887Z,9.63
2023-01-19T16:35:42.314Z,10.60
2023-01-19T16:38:44.809Z,10.60
2023-01-19T16:41:47.866Z,8.77
2023-01-19T16:44:50.313Z,9.73
2023-01-19T16:47:52.708Z,8.13
2023-01-19T16:51:04.306Z,9.27
2023-01-19T16:54:07.524Z,8.52
2023-01-19T16:57:11.206Z,9.83
2023-01-19T17:00:14.212Z,8.60
2023-01-19T17:03:17.775Z,6.55
2023-01-19T17:06:24.811Z,8.73
2023-01-19T17:09:27.504Z,9.63
2023-01-19T17:12:32.247Z,8.17
2023-01-19T17:15:35.356Z,8.20
2023-01-19T17:18:38.247Z,8.02
2023-01-19T17:21:40.822Z,8.03
2023-01-19T17:24:44.652Z,8.40
2023-01-19T17:27:47.201Z,7.55
2023-01-19T17:30:51.462Z,7.00
2023-01-19T17:33:54.286Z,7.40
2023-01-19T17:37:02.911Z,7.27
2023-01-19T17:40:06.403Z,7.78
2023-01-19T17:43:12.256Z,8.30
2023-01-19T17:46:15.248Z,8.10
2023-01-19T17:49:17.787Z,7.63
2023-01-19T17:52:20.907Z,7.55
2023-01-19T17:55:23.894Z,7.85
2023-01-19T17:58:26.626Z,8.13
2023-01-19T18:01:32.161Z,9.03
2023-01-19T18:04:37.909Z,6.63
2023-01-19T18:07:40.696Z,7.97
2023-01-19T18:10:43.515Z,9.07
2023-01-19T18:13:48.343Z,9.82
2023-01-19T18:16:51.035Z,8.52
2023-01-19T18:19:54.807Z,9.52
2023-01-19T18:22:57.746Z,8.63
2023-01-19T18:26:05.222Z,7.78
2023-01-19T18:29:08.727Z,8.10
2023-01-19T18:32:11.706Z,9.30
2023-01-19T18:35:14.491Z,10.27
2023-01-19T18:38:17.223Z,8.93
2023-01-19T18:41:21.435Z,8.60
2023-01-19T18:44:24.972Z,7.07
2023-01-19T18:47:28.316Z,8.83
2023-01-19T18:50:31.598Z,7.35
2023-01-19T18:53:35.014Z,7.90
2023-01-19T18:56:37.501Z,8.40
2023-01-19T18:59:43.885Z,7.60
2023-01-19T19:02:47.344Z,7.65
2023-01-19T19:05:50.441Z,8.70
2023-01-19T19:08:56.924Z,8.60
2023-01-19T19:12:00.024Z,8.13
2023-01-19T19:15:03.256Z,7.77
2023-01-19T19:18:06.146Z,7.63
2023-01-19T19:21:11.007Z,8.15
2023-01-19T19:24:13.863Z,8.10
2023-01-19T19:27:17.809Z,7.20
2023-01-19T19:30:21.292Z,7.75
2023-01-19T19:33:23.884Z,8.48
2023-01-19T19:36:28.693Z,7.67
2023-01-19T19:39:31.871Z,8.10
2023-01-19T19:42:34.767Z,7.40
2023-01-19T19:45:38.464Z,6.90
2023-01-19T19:48:42.005Z,7.57
2023-01-19T19:51:44.847Z,6.75
2023-01-19T19:54:50.937Z,7.05
2023-01-19T19:57:54.874Z,6.82
2023-01-19T20:00:57.936Z,8.00
2023-01-19T20:04:06.873Z,7.75
2023-01-19T20:07:09.522Z,7.10
2023-01-19T20:10:12.383Z,6.93
2023-01-19T20:13:17.882Z,7.80
2023-01-19T20:16:23.291Z,6.63
2023-01-19T20:19:26.633Z,6.57
2023-01-19T20:22:29.420Z,6.82
2023-01-19T20:25:33.211Z,6.83
2023-01-19T20:28:36.499Z,5.90
2023-01-19T20:31:44.573Z,7.38
2023-01-19T20:34:47.466Z,6.72
2023-01-19T20:37:49.892Z,6.03
2023-01-19T20:40:53.470Z,6.35
2023-01-19T20:43:56.200Z,6.65
2023-01-19T20:46:58.879Z,6.60
2023-01-19T20:50:02.442Z,6.77
2023-01-19T20:53:05.312Z,6.15
2023-01-19T20:56:11.513Z,6.30
2023-01-19T20:59:14.441Z,5.73
2023-01-19T21:02:17.663Z,5.63
2023-01-19T21:05:20.551Z,5.95
2023-01-19T21:08:23.263Z,5.30
2023-01-19T21:11:26.484Z,5.47
2023-01-19T21:14:29.438Z,5.30
2023-01-19T21:17:32.460Z,5.13
2023-01-19T21:20:34.952Z,5.50
2023-01-19T21:23:37.420Z,5.87
2023-01-19T21:26:41.763Z,5.80
2023-01-19T21:29:44.597Z,6.38
2023-01-19T21:32:47.292Z,5.53
2023-01-19T21:35:55.561Z,5.73
2023-01-19T21:39:00.900Z,5.35
2023-01-19T21:42:03.753Z,5.95
2023-01-19T21:45:08.013Z,5.45
2023-01-19T21:48:10.548Z,5.47
2023-01-19T21:51:14.177Z,5.60
2023-01-19T21:54:17.663Z,5.38
2023-01-19T21:57:20.085Z,5.57
2023-01-19T22:00:22.763Z,5.47
2023-01-19T22:03:27.351Z,5.47
2023-01-19T22:06:30.129Z,5.88
2023-01-19T22:09:36.465Z,5.90
2023-01-19T22:12:40.435Z,6.80
2023-01-19T22:15:42.934Z,5.35
2023-01-19T22:18:50.432Z,5.97
2023-01-19T22:21:52.912Z,5.38
2023-01-19T22:24:55.501Z,4.70
2023-01-19T22:27:59.373Z,4.55
2023-01-19T22:31:13.675Z,4.53
2023-01-19T22:34:17.933Z,4.28
2023-01-19T22:37:20.415Z,4.70
2023-01-19T22:40:22.844Z,4.47
2023-01-19T22:43:25.693Z,4.70
2023-01-19T22:46:30.512Z,5.33
2023-01-19T22:49:33.021Z,4.55
2023-01-19T22:52:35.422Z,5.55
2023-01-19T22:55:37.798Z,5.15
2023-01-19T22:58:40.760Z,5.17
2023-01-19T23:01:44.446Z,4.85
2023-01-19T23:04:47.047Z,4.85
2023-01-19T23:07:49.635Z,4.30
2023-01-19T23:10:52.083Z,4.47
2023-01-19T23:13:55.436Z,4.00
2023-01-19T23:16:57.857Z,4.95
2023-01-19T23:20:00.325Z,4.43
2023-01-19T23:23:02.829Z,4.67
2023-01-19T23:26:11.752Z,3.97
2023-01-19T23:29:15.485Z,4.38
2023-01-19T23:32:17.872Z,4.55
2023-01-19T23:35:20.240Z,4.27
2023-01-19T23:38:23.069Z,4.32
2023-01-19T23:41:26.312Z,4.50
2023-01-19T23:44:28.747Z,4.25
2023-01-19T23:47:32.779Z,4.07
2023-01-19T23:50:38.819Z,4.38
2023-01-19T23:53:41.692Z,4.55
2023-01-19T23:56:44.119Z,4.00
2023-01-19T23:59:46.571Z,3.93
